sensor_id;sensor_type;location;lat;lon;timestamp;temperature;humidity
3758;DHT22;1894;51.038;13.692;2024-01-06T00:00:26;4.10;99.90
3758;DHT22;1894;51.038;13.692;2024-01-06T00:02:53;4.00;99.90
3758;DHT22;1894;51.038;13.692;2024-01-06T00:05:20;4.00;99.90
3758;DHT22;1894;51.038;13.692;2024-01-06T00:07:48;3.90;99.90
3758;DHT22;1894;51.038;13.692;2024-01-06T00:10:15;4.00;99.90
3758;DHT22;1894;51.038;13.692;2024-01-06T00:12:44;3.90;99.90
3758;DHT22;1894;51.038;13.692;2024-01-06T00:15:12;3.90;99.90
3758;DHT22;1894;51.038;13.692;2024-01-06T00:17:39;3.80;99.90
3758;DHT22;1894;51.038;13.692;2024-01-06T00:20:07;3.70;99.90
3758;DHT22;1894;51.038;13.692;2024-01-06T00:22:35;3.60;99.90
3758;DHT22;1894;51.038;13.692;2024-01-06T00:25:02;3.60;99.90
3758;DHT22;1894;51.038;13.692;2024-01-06T00:27:29;3.60;99.90
3758;DHT22;1894;51.038;13.692;2024-01-06T00:29:57;3.60;99.90
3758;DHT22;1894;51.038;13.692;2024-01-06T00:32:24;3.50;99.90
3758;DHT22;1894;51.038;13.692;2024-01-06T00:34:51;3.50;99.90
3758;DHT22;1894;51.038;13.692;2024-01-06T00:37:19;3.50;99.90
3758;DHT22;1894;51.038;13.692;2024-01-06T00:39:46;3.60;99.90
3758;DHT22;1894;51.038;13.692;2024-01-06T00:42:13;3.60;99.90
3758;DHT22;1894;51.038;13.692;2024-01-06T00:44:40;3.40;99.90
3758;DHT22;1894;51.038;13.692;2024-01-06T00:47:07;3.40;99.90
3758;DHT22;1894;51.038;13.692;2024-01-06T00:49:34;3.40;99.90
3758;DHT22;1894;51.038;13.692;2024-01-06T00:52:02;3.40;99.90
3758;DHT22;1894;51.038;13.692;2024-01-06T00:54:30;3.50;99.90
3758;DHT22;1894;51.038;13.692;2024-01-06T00:56:57;3.40;99.90
3758;DHT22;1894;51.038;13.692;2024-01-06T00:59:24;3.50;99.90
3758;DHT22;1894;51.038;13.692;2024-01-06T01:01:52;3.50;99.90
3758;DHT22;1894;51.038;13.692;2024-01-06T01:04:19;3.50;99.90
3758;DHT22;1894;51.038;13.692;2024-01-06T01:06:47;3.40;99.90
3758;DHT22;1894;51.038;13.692;2024-01-06T01:09:14;3.40;99.90
3758;DHT22;1894;51.038;13.692;2024-01-06T01:11:42;3.40;99.90
3758;DHT22;1894;51.038;13.692;2024-01-06T01:14:09;3.30;99.90
3758;DHT22;1894;51.038;13.692;2024-01-06T01:16:36;3.40;99.90
3758;DHT22;1894;51.038;13.692;2024-01-06T01:19:04;3.40;99.90
3758;DHT22;1894;51.038;13.692;2024-01-06T01:21:31;3.40;99.90
3758;DHT22;1894;51.038;13.692;2024-01-06T01:23:58;3.40;99.90
3758;DHT22;1894;51.038;13.692;2024-01-06T01:26:26;3.40;99.90
3758;DHT22;1894;51.038;13.692;2024-01-06T01:28:53;3.40;99.90
3758;DHT22;1894;51.038;13.692;2024-01-06T01:31:20;3.40;99.90
3758;DHT22;1894;51.038;13.692;2024-01-06T01:33:47;3.30;99.90
3758;DHT22;1894;51.038;13.692;2024-01-06T01:36:15;3.30;99.90
3758;DHT22;1894;51.038;13.692;2024-01-06T01:38:42;3.30;99.90
3758;DHT22;1894;51.038;13.692;2024-01-06T01:41:09;3.20;99.90
3758;DHT22;1894;51.038;13.692;2024-01-06T01:43:36;3.20;99.90
3758;DHT22;1894;51.038;13.692;2024-01-06T01:46:05;3.10;99.90
3758;DHT22;1894;51.038;13.692;2024-01-06T01:48:32;3.10;99.90
3758;DHT22;1894;51.038;13.692;2024-01-06T01:51:02;3.10;99.90
3758;DHT22;1894;51.038;13.692;2024-01-06T01:53:30;3.10;99.90
3758;DHT22;1894;51.038;13.692;2024-01-06T01:55:59;3.10;99.90
3758;DHT22;1894;51.038;13.692;2024-01-06T01:58:26;3.10;99.90
3758;DHT22;1894;51.038;13.692;2024-01-06T02:00:53;3.10;99.90
3758;DHT22;1894;51.038;13.692;2024-01-06T02:03:22;3.10;99.90
3758;DHT22;1894;51.038;13.692;2024-01-06T02:05:51;3.10;99.90
3758;DHT22;1894;51.038;13.692;2024-01-06T02:08:18;3.10;99.90
3758;DHT22;1894;51.038;13.692;2024-01-06T02:10:46;3.00;99.90
3758;DHT22;1894;51.038;13.692;2024-01-06T02:13:13;2.90;99.90
3758;DHT22;1894;51.038;13.692;2024-01-06T02:15:41;2.90;99.90
3758;DHT22;1894;51.038;13.692;2024-01-06T02:18:08;2.90;99.90
3758;DHT22;1894;51.038;13.692;2024-01-06T02:20:37;2.90;99.90
3758;DHT22;1894;51.038;13.692;2024-01-06T02:23:04;2.90;99.90
3758;DHT22;1894;51.038;13.692;2024-01-06T02:25:32;2.90;99.90
3758;DHT22;1894;51.038;13.692;2024-01-06T02:28:00;2.90;99.90
3758;DHT22;1894;51.038;13.692;2024-01-06T02:30:28;2.90;99.90
3758;DHT22;1894;51.038;13.692;2024-01-06T02:32:55;2.90;99.90
3758;DHT22;1894;51.038;13.692;2024-01-06T02:35:22;2.90;99.90
3758;DHT22;1894;51.038;13.692;2024-01-06T02:37:50;2.90;99.90
3758;DHT22;1894;51.038;13.692;2024-01-06T02:40:17;2.90;99.90
3758;DHT22;1894;51.038;13.692;2024-01-06T02:42:44;2.90;99.90
3758;DHT22;1894;51.038;13.692;2024-01-06T02:45:12;2.90;99.90
3758;DHT22;1894;51.038;13.692;2024-01-06T02:47:39;2.80;99.90
3758;DHT22;1894;51.038;13.692;2024-01-06T02:50:07;2.80;99.90
3758;DHT22;1894;51.038;13.692;2024-01-06T02:52:34;2.80;99.90
3758;DHT22;1894;51.038;13.692;2024-01-06T02:55:01;2.70;99.90
3758;DHT22;1894;51.038;13.692;2024-01-06T02:57:32;2.70;99.90
3758;DHT22;1894;51.038;13.692;2024-01-06T02:59:59;2.70;99.90
3758;DHT22;1894;51.038;13.692;2024-01-06T03:02:27;2.70;99.90
3758;DHT22;1894;51.038;13.692;2024-01-06T03:04:54;2.60;99.90
3758;DHT22;1894;51.038;13.692;2024-01-06T03:07:25;2.50;99.90
3758;DHT22;1894;51.038;13.692;2024-01-06T03:09:52;2.50;99.90
3758;DHT22;1894;51.038;13.692;2024-01-06T03:12:19;2.40;99.90
3758;DHT22;1894;51.038;13.692;2024-01-06T03:14:47;2.20;99.90
3758;DHT22;1894;51.038;13.692;2024-01-06T03:17:15;2.20;99.90
3758;DHT22;1894;51.038;13.692;2024-01-06T03:19:42;2.30;99.90
3758;DHT22;1894;51.038;13.692;2024-01-06T03:22:11;2.30;99.90
3758;DHT22;1894;51.038;13.692;2024-01-06T03:24:40;2.30;99.90
3758;DHT22;1894;51.038;13.692;2024-01-06T03:27:07;2.20;99.90
3758;DHT22;1894;51.038;13.692;2024-01-06T03:29:35;2.10;99.90
3758;DHT22;1894;51.038;13.692;2024-01-06T03:32:03;2.10;99.90
3758;DHT22;1894;51.038;13.692;2024-01-06T03:34:31;2.00;99.90
3758;DHT22;1894;51.038;13.692;2024-01-06T03:36:59;1.90;99.90
3758;DHT22;1894;51.038;13.692;2024-01-06T03:39:26;1.90;99.90
3758;DHT22;1894;51.038;13.692;2024-01-06T03:41:56;1.90;99.90
3758;DHT22;1894;51.038;13.692;2024-01-06T03:44:24;1.90;99.90
3758;DHT22;1894;51.038;13.692;2024-01-06T03:46:52;1.90;99.90
3758;DHT22;1894;51.038;13.692;2024-01-06T03:49:19;1.90;99.90
3758;DHT22;1894;51.038;13.692;2024-01-06T03:51:47;1.80;99.90
3758;DHT22;1894;51.038;13.692;2024-01-06T03:54:15;1.80;99.90
3758;DHT22;1894;51.038;13.692;2024-01-06T03:56:42;1.80;99.90
3758;DHT22;1894;51.038;13.692;2024-01-06T03:59:09;1.80;99.90
3758;DHT22;1894;51.038;13.692;2024-01-06T04:01:36;1.90;99.90
3758;DHT22;1894;51.038;13.692;2024-01-06T04:04:03;1.90;99.90
3758;DHT22;1894;51.038;13.692;2024-01-06T04:06:31;1.90;99.90
3758;DHT22;1894;51.038;13.692;2024-01-06T04:08:59;1.80;99.90
3758;DHT22;1894;51.038;13.692;2024-01-06T04:11:27;1.90;99.90
3758;DHT22;1894;51.038;13.692;2024-01-06T04:13:54;1.90;99.90
3758;DHT22;1894;51.038;13.692;2024-01-06T04:16:21;1.90;99.90
3758;DHT22;1894;51.038;13.692;2024-01-06T04:18:49;1.90;99.90
3758;DHT22;1894;51.038;13.692;2024-01-06T04:21:17;1.80;99.90
3758;DHT22;1894;51.038;13.692;2024-01-06T04:23:44;1.80;99.90
3758;DHT22;1894;51.038;13.692;2024-01-06T04:26:11;1.80;99.90
3758;DHT22;1894;51.038;13.692;2024-01-06T04:28:38;1.80;99.90
3758;DHT22;1894;51.038;13.692;2024-01-06T04:31:05;1.70;99.90
3758;DHT22;1894;51.038;13.692;2024-01-06T04:33:35;1.70;99.90
3758;DHT22;1894;51.038;13.692;2024-01-06T04:36:04;1.70;99.90
3758;DHT22;1894;51.038;13.692;2024-01-06T04:38:31;1.80;99.90
3758;DHT22;1894;51.038;13.692;2024-01-06T04:40:59;1.80;99.90
3758;DHT22;1894;51.038;13.692;2024-01-06T04:43:26;1.80;99.90
3758;DHT22;1894;51.038;13.692;2024-01-06T04:45:53;1.90;99.90
3758;DHT22;1894;51.038;13.692;2024-01-06T04:48:20;1.90;99.90
3758;DHT22;1894;51.038;13.692;2024-01-06T04:50:47;1.90;99.90
3758;DHT22;1894;51.038;13.692;2024-01-06T04:53:15;2.00;99.90
3758;DHT22;1894;51.038;13.692;2024-01-06T04:55:42;2.00;99.90
3758;DHT22;1894;51.038;13.692;2024-01-06T04:58:09;2.00;99.90
3758;DHT22;1894;51.038;13.692;2024-01-06T05:00:36;2.10;99.90
3758;DHT22;1894;51.038;13.692;2024-01-06T05:03:04;2.10;99.90
3758;DHT22;1894;51.038;13.692;2024-01-06T05:05:31;2.20;99.90
3758;DHT22;1894;51.038;13.692;2024-01-06T05:07:58;2.20;99.90
3758;DHT22;1894;51.038;13.692;2024-01-06T05:10:26;2.20;99.90
3758;DHT22;1894;51.038;13.692;2024-01-06T05:12:53;2.20;99.90
3758;DHT22;1894;51.038;13.692;2024-01-06T05:15:20;2.30;99.90
3758;DHT22;1894;51.038;13.692;2024-01-06T05:17:47;2.40;99.90
3758;DHT22;1894;51.038;13.692;2024-01-06T05:20:14;2.40;99.90
3758;DHT22;1894;51.038;13.692;2024-01-06T05:22:42;2.40;99.90
3758;DHT22;1894;51.038;13.692;2024-01-06T05:25:09;2.60;99.90
3758;DHT22;1894;51.038;13.692;2024-01-06T05:27:36;2.50;99.90
3758;DHT22;1894;51.038;13.692;2024-01-06T05:30:04;2.50;99.90
3758;DHT22;1894;51.038;13.692;2024-01-06T05:32:33;2.50;99.90
3758;DHT22;1894;51.038;13.692;2024-01-06T05:35:00;2.50;99.90
3758;DHT22;1894;51.038;13.692;2024-01-06T05:37:28;2.50;99.90
3758;DHT22;1894;51.038;13.692;2024-01-06T05:39:55;2.50;99.90
3758;DHT22;1894;51.038;13.692;2024-01-06T05:42:25;2.60;99.90
3758;DHT22;1894;51.038;13.692;2024-01-06T05:44:52;2.80;99.90
3758;DHT22;1894;51.038;13.692;2024-01-06T05:47:19;3.00;99.90
3758;DHT22;1894;51.038;13.692;2024-01-06T05:49:46;3.00;99.90
3758;DHT22;1894;51.038;13.692;2024-01-06T05:52:15;3.00;99.90
3758;DHT22;1894;51.038;13.692;2024-01-06T05:54:42;3.10;99.90
3758;DHT22;1894;51.038;13.692;2024-01-06T05:57:10;3.10;99.90
3758;DHT22;1894;51.038;13.692;2024-01-06T05:59:39;3.10;99.90
3758;DHT22;1894;51.038;13.692;2024-01-06T06:02:06;3.00;99.90
3758;DHT22;1894;51.038;13.692;2024-01-06T06:04:33;2.90;99.90
3758;DHT22;1894;51.038;13.692;2024-01-06T06:07:00;2.90;99.90
3758;DHT22;1894;51.038;13.692;2024-01-06T06:09:29;3.00;99.90
3758;DHT22;1894;51.038;13.692;2024-01-06T06:11:57;3.10;99.90
3758;DHT22;1894;51.038;13.692;2024-01-06T06:14:25;3.30;99.90
3758;DHT22;1894;51.038;13.692;2024-01-06T06:16:55;3.30;99.90
3758;DHT22;1894;51.038;13.692;2024-01-06T06:19:23;3.40;99.90
3758;DHT22;1894;51.038;13.692;2024-01-06T06:21:51;3.40;99.90
3758;DHT22;1894;51.038;13.692;2024-01-06T06:24:19;3.50;99.90
3758;DHT22;1894;51.038;13.692;2024-01-06T06:26:46;3.60;99.90
3758;DHT22;1894;51.038;13.692;2024-01-06T06:29:13;3.60;99.90
3758;DHT22;1894;51.038;13.692;2024-01-06T06:31:41;3.60;99.90
3758;DHT22;1894;51.038;13.692;2024-01-06T06:34:10;3.50;99.90
3758;DHT22;1894;51.038;13.692;2024-01-06T06:36:37;3.30;99.90
3758;DHT22;1894;51.038;13.692;2024-01-06T06:39:05;3.20;99.90
3758;DHT22;1894;51.038;13.692;2024-01-06T06:41:32;3.20;99.90
3758;DHT22;1894;51.038;13.692;2024-01-06T06:43:59;3.20;99.90
3758;DHT22;1894;51.038;13.692;2024-01-06T06:46:27;3.40;99.90
3758;DHT22;1894;51.038;13.692;2024-01-06T06:48:54;3.50;99.90
3758;DHT22;1894;51.038;13.692;2024-01-06T06:51:22;3.40;99.90
3758;DHT22;1894;51.038;13.692;2024-01-06T06:53:52;3.40;99.90
3758;DHT22;1894;51.038;13.692;2024-01-06T06:56:19;3.40;99.90
3758;DHT22;1894;51.038;13.692;2024-01-06T06:58:46;3.50;99.90
3758;DHT22;1894;51.038;13.692;2024-01-06T07:01:16;3.60;99.90
3758;DHT22;1894;51.038;13.692;2024-01-06T07:03:46;3.60;99.90
3758;DHT22;1894;51.038;13.692;2024-01-06T07:06:15;3.70;99.90
3758;DHT22;1894;51.038;13.692;2024-01-06T07:08:44;3.80;99.90
3758;DHT22;1894;51.038;13.692;2024-01-06T07:11:11;3.90;99.90
3758;DHT22;1894;51.038;13.692;2024-01-06T07:13:41;4.00;99.90
3758;DHT22;1894;51.038;13.692;2024-01-06T07:16:09;4.10;99.90
3758;DHT22;1894;51.038;13.692;2024-01-06T07:18:45;4.10;99.90
3758;DHT22;1894;51.038;13.692;2024-01-06T07:21:13;4.00;99.90
3758;DHT22;1894;51.038;13.692;2024-01-06T07:23:40;3.90;99.90
3758;DHT22;1894;51.038;13.692;2024-01-06T07:26:08;3.90;99.90
3758;DHT22;1894;51.038;13.692;2024-01-06T07:28:35;4.00;99.90
3758;DHT22;1894;51.038;13.692;2024-01-06T07:31:03;4.00;99.90
3758;DHT22;1894;51.038;13.692;2024-01-06T07:33:36;4.00;99.90
3758;DHT22;1894;51.038;13.692;2024-01-06T07:36:03;4.00;99.90
3758;DHT22;1894;51.038;13.692;2024-01-06T07:38:31;4.00;99.90
3758;DHT22;1894;51.038;13.692;2024-01-06T07:40:58;4.10;99.90
3758;DHT22;1894;51.038;13.692;2024-01-06T07:43:26;4.10;99.90
3758;DHT22;1894;51.038;13.692;2024-01-06T07:45:53;4.10;99.90
3758;DHT22;1894;51.038;13.692;2024-01-06T07:48:21;4.20;99.90
3758;DHT22;1894;51.038;13.692;2024-01-06T07:50:48;4.20;99.90
3758;DHT22;1894;51.038;13.692;2024-01-06T07:53:17;4.20;99.90
3758;DHT22;1894;51.038;13.692;2024-01-06T07:55:45;4.30;99.90
3758;DHT22;1894;51.038;13.692;2024-01-06T07:58:12;4.30;99.90
3758;DHT22;1894;51.038;13.692;2024-01-06T08:00:39;4.30;99.90
3758;DHT22;1894;51.038;13.692;2024-01-06T08:03:07;4.10;99.90
3758;DHT22;1894;51.038;13.692;2024-01-06T08:05:34;4.10;99.90
3758;DHT22;1894;51.038;13.692;2024-01-06T08:08:01;4.00;99.90
3758;DHT22;1894;51.038;13.692;2024-01-06T08:10:28;4.10;99.90
3758;DHT22;1894;51.038;13.692;2024-01-06T08:12:55;4.20;99.90
3758;DHT22;1894;51.038;13.692;2024-01-06T08:15:24;4.30;99.90
3758;DHT22;1894;51.038;13.692;2024-01-06T08:17:51;4.50;99.90
3758;DHT22;1894;51.038;13.692;2024-01-06T08:20:18;4.50;99.90
3758;DHT22;1894;51.038;13.692;2024-01-06T08:22:45;4.50;99.90
3758;DHT22;1894;51.038;13.692;2024-01-06T08:25:12;4.70;99.90
3758;DHT22;1894;51.038;13.692;2024-01-06T08:27:40;4.70;99.90
3758;DHT22;1894;51.038;13.692;2024-01-06T08:30:08;4.80;99.90
3758;DHT22;1894;51.038;13.692;2024-01-06T08:32:38;4.90;99.90
3758;DHT22;1894;51.038;13.692;2024-01-06T08:35:06;5.10;99.90
3758;DHT22;1894;51.038;13.692;2024-01-06T08:37:34;5.30;99.90
3758;DHT22;1894;51.038;13.692;2024-01-06T08:40:01;5.20;99.90
3758;DHT22;1894;51.038;13.692;2024-01-06T08:42:30;5.40;99.90
3758;DHT22;1894;51.038;13.692;2024-01-06T08:44:57;5.40;99.90
3758;DHT22;1894;51.038;13.692;2024-01-06T08:47:24;5.40;99.90
3758;DHT22;1894;51.038;13.692;2024-01-06T08:49:51;5.60;99.90
3758;DHT22;1894;51.038;13.692;2024-01-06T08:52:19;5.50;99.90
3758;DHT22;1894;51.038;13.692;2024-01-06T08:54:46;5.60;99.90
3758;DHT22;1894;51.038;13.692;2024-01-06T08:57:13;5.80;99.90
3758;DHT22;1894;51.038;13.692;2024-01-06T08:59:40;5.80;99.90
3758;DHT22;1894;51.038;13.692;2024-01-06T09:02:11;5.80;99.90
3758;DHT22;1894;51.038;13.692;2024-01-06T09:04:39;5.60;99.90
3758;DHT22;1894;51.038;13.692;2024-01-06T09:07:09;5.80;99.90
3758;DHT22;1894;51.038;13.692;2024-01-06T09:09:37;5.60;99.90
3758;DHT22;1894;51.038;13.692;2024-01-06T09:12:05;5.80;99.90
3758;DHT22;1894;51.038;13.692;2024-01-06T09:14:36;5.90;99.90
3758;DHT22;1894;51.038;13.692;2024-01-06T09:17:03;6.10;99.90
3758;DHT22;1894;51.038;13.692;2024-01-06T09:19:31;6.10;99.90
3758;DHT22;1894;51.038;13.692;2024-01-06T09:21:58;6.30;99.90
3758;DHT22;1894;51.038;13.692;2024-01-06T09:24:25;6.40;99.90
3758;DHT22;1894;51.038;13.692;2024-01-06T09:26:53;6.30;99.90
3758;DHT22;1894;51.038;13.692;2024-01-06T09:29:20;6.30;99.90
3758;DHT22;1894;51.038;13.692;2024-01-06T09:31:48;6.50;99.90
3758;DHT22;1894;51.038;13.692;2024-01-06T09:34:15;6.70;99.90
3758;DHT22;1894;51.038;13.692;2024-01-06T09:36:42;6.80;99.90
3758;DHT22;1894;51.038;13.692;2024-01-06T09:39:09;6.60;99.90
3758;DHT22;1894;51.038;13.692;2024-01-06T09:41:37;6.70;99.90
3758;DHT22;1894;51.038;13.692;2024-01-06T09:44:04;6.80;99.90
3758;DHT22;1894;51.038;13.692;2024-01-06T09:46:32;6.80;99.90
3758;DHT22;1894;51.038;13.692;2024-01-06T09:49:01;6.80;99.90
3758;DHT22;1894;51.038;13.692;2024-01-06T09:51:28;6.90;99.90
3758;DHT22;1894;51.038;13.692;2024-01-06T09:54:01;6.80;99.90
3758;DHT22;1894;51.038;13.692;2024-01-06T09:56:29;6.90;99.90
3758;DHT22;1894;51.038;13.692;2024-01-06T09:58:57;7.00;99.90
3758;DHT22;1894;51.038;13.692;2024-01-06T10:01:24;7.00;99.90
3758;DHT22;1894;51.038;13.692;2024-01-06T10:03:52;7.20;99.90
3758;DHT22;1894;51.038;13.692;2024-01-06T10:06:20;7.30;99.90
3758;DHT22;1894;51.038;13.692;2024-01-06T10:08:51;7.10;99.90
3758;DHT22;1894;51.038;13.692;2024-01-06T10:11:22;7.30;99.90
3758;DHT22;1894;51.038;13.692;2024-01-06T10:13:50;7.50;99.90
3758;DHT22;1894;51.038;13.692;2024-01-06T10:16:19;7.60;99.90
3758;DHT22;1894;51.038;13.692;2024-01-06T10:18:46;7.60;99.90
3758;DHT22;1894;51.038;13.692;2024-01-06T10:21:23;7.60;99.90
3758;DHT22;1894;51.038;13.692;2024-01-06T10:23:54;7.50;99.90
3758;DHT22;1894;51.038;13.692;2024-01-06T10:26:21;7.70;99.90
3758;DHT22;1894;51.038;13.692;2024-01-06T10:28:49;7.50;99.90
3758;DHT22;1894;51.038;13.692;2024-01-06T10:31:18;7.70;99.90
3758;DHT22;1894;51.038;13.692;2024-01-06T10:33:46;7.90;99.90
3758;DHT22;1894;51.038;13.692;2024-01-06T10:36:14;7.90;99.90
3758;DHT22;1894;51.038;13.692;2024-01-06T10:38:44;8.10;99.90
3758;DHT22;1894;51.038;13.692;2024-01-06T10:41:12;8.10;99.90
3758;DHT22;1894;51.038;13.692;2024-01-06T10:43:41;8.00;99.90
3758;DHT22;1894;51.038;13.692;2024-01-06T10:46:10;8.00;99.90
3758;DHT22;1894;51.038;13.692;2024-01-06T10:48:39;8.10;99.90
3758;DHT22;1894;51.038;13.692;2024-01-06T10:51:12;8.30;99.90
3758;DHT22;1894;51.038;13.692;2024-01-06T10:53:41;8.40;99.90
3758;DHT22;1894;51.038;13.692;2024-01-06T10:56:10;8.40;99.90
3758;DHT22;1894;51.038;13.692;2024-01-06T10:58:39;8.40;99.90
3758;DHT22;1894;51.038;13.692;2024-01-06T11:01:23;8.20;99.90
3758;DHT22;1894;51.038;13.692;2024-01-06T11:03:56;8.10;99.90
3758;DHT22;1894;51.038;13.692;2024-01-06T11:06:25;8.20;99.90
3758;DHT22;1894;51.038;13.692;2024-01-06T11:11:48;8.40;99.90
3758;DHT22;1894;51.038;13.692;2024-01-06T11:14:23;8.70;99.90
3758;DHT22;1894;51.038;13.692;2024-01-06T11:16:53;8.70;99.90
3758;DHT22;1894;51.038;13.692;2024-01-06T11:24:50;8.20;99.90
3758;DHT22;1894;51.038;13.692;2024-01-06T11:27:20;8.30;99.90
3758;DHT22;1894;51.038;13.692;2024-01-06T11:29:53;8.40;99.90
3758;DHT22;1894;51.038;13.692;2024-01-06T11:32:34;8.60;99.90
3758;DHT22;1894;51.038;13.692;2024-01-06T11:35:14;8.50;99.90
3758;DHT22;1894;51.038;13.692;2024-01-06T11:43:07;8.30;99.90
3758;DHT22;1894;51.038;13.692;2024-01-06T11:45:36;8.30;99.90
3758;DHT22;1894;51.038;13.692;2024-01-06T11:48:07;8.20;99.90
3758;DHT22;1894;51.038;13.692;2024-01-06T11:50:37;8.30;99.90
3758;DHT22;1894;51.038;13.692;2024-01-06T11:53:06;8.10;99.90
3758;DHT22;1894;51.038;13.692;2024-01-06T11:55:42;8.00;99.90
3758;DHT22;1894;51.038;13.692;2024-01-06T11:58:12;7.90;99.90
3758;DHT22;1894;51.038;13.692;2024-01-06T12:00:40;7.70;99.90
3758;DHT22;1894;51.038;13.692;2024-01-06T12:03:09;7.70;99.90
3758;DHT22;1894;51.038;13.692;2024-01-06T12:05:36;7.80;99.90
3758;DHT22;1894;51.038;13.692;2024-01-06T12:08:05;7.80;99.90
3758;DHT22;1894;51.038;13.692;2024-01-06T12:10:34;7.70;99.90
3758;DHT22;1894;51.038;13.692;2024-01-06T12:13:04;7.70;99.90
3758;DHT22;1894;51.038;13.692;2024-01-06T12:15:36;7.70;99.90
3758;DHT22;1894;51.038;13.692;2024-01-06T12:18:08;7.70;99.90
3758;DHT22;1894;51.038;13.692;2024-01-06T12:20:35;7.60;99.90
3758;DHT22;1894;51.038;13.692;2024-01-06T12:23:03;7.50;99.90
3758;DHT22;1894;51.038;13.692;2024-01-06T12:25:34;7.50;99.90
3758;DHT22;1894;51.038;13.692;2024-01-06T12:28:07;7.60;99.90
3758;DHT22;1894;51.038;13.692;2024-01-06T12:30:34;7.50;99.90
3758;DHT22;1894;51.038;13.692;2024-01-06T12:33:03;7.30;99.90
3758;DHT22;1894;51.038;13.692;2024-01-06T12:35:31;7.40;99.90
3758;DHT22;1894;51.038;13.692;2024-01-06T12:37:58;7.40;99.90
3758;DHT22;1894;51.038;13.692;2024-01-06T12:40:28;7.60;99.90
3758;DHT22;1894;51.038;13.692;2024-01-06T12:42:55;7.60;99.90
3758;DHT22;1894;51.038;13.692;2024-01-06T12:45:22;7.60;99.90
3758;DHT22;1894;51.038;13.692;2024-01-06T12:47:49;7.60;99.90
3758;DHT22;1894;51.038;13.692;2024-01-06T12:50:18;7.50;99.90
3758;DHT22;1894;51.038;13.692;2024-01-06T12:52:46;7.40;99.90
3758;DHT22;1894;51.038;13.692;2024-01-06T12:55:14;7.50;99.90
3758;DHT22;1894;51.038;13.692;2024-01-06T12:57:42;7.30;99.90
3758;DHT22;1894;51.038;13.692;2024-01-06T13:00:10;7.40;99.90
3758;DHT22;1894;51.038;13.692;2024-01-06T13:02:39;7.20;99.90
3758;DHT22;1894;51.038;13.692;2024-01-06T13:05:06;7.30;99.90
3758;DHT22;1894;51.038;13.692;2024-01-06T13:07:36;7.10;99.90
3758;DHT22;1894;51.038;13.692;2024-01-06T13:10:04;7.10;99.90
3758;DHT22;1894;51.038;13.692;2024-01-06T13:12:32;6.90;99.90
3758;DHT22;1894;51.038;13.692;2024-01-06T13:15:00;6.90;99.90
3758;DHT22;1894;51.038;13.692;2024-01-06T13:17:28;6.80;99.90
3758;DHT22;1894;51.038;13.692;2024-01-06T13:19:55;6.80;99.90
3758;DHT22;1894;51.038;13.692;2024-01-06T13:22:23;6.80;99.90
3758;DHT22;1894;51.038;13.692;2024-01-06T13:24:52;6.80;99.90
3758;DHT22;1894;51.038;13.692;2024-01-06T13:27:20;6.80;99.90
3758;DHT22;1894;51.038;13.692;2024-01-06T13:29:48;6.80;99.90
3758;DHT22;1894;51.038;13.692;2024-01-06T13:32:18;6.70;99.90
3758;DHT22;1894;51.038;13.692;2024-01-06T13:34:46;6.70;99.90
3758;DHT22;1894;51.038;13.692;2024-01-06T13:37:16;6.70;99.90
3758;DHT22;1894;51.038;13.692;2024-01-06T13:39:44;6.60;99.90
3758;DHT22;1894;51.038;13.692;2024-01-06T13:42:11;6.50;99.90
3758;DHT22;1894;51.038;13.692;2024-01-06T13:44:40;6.50;99.90
3758;DHT22;1894;51.038;13.692;2024-01-06T13:47:07;6.40;99.90
3758;DHT22;1894;51.038;13.692;2024-01-06T13:49:34;6.50;99.90
3758;DHT22;1894;51.038;13.692;2024-01-06T13:52:01;6.40;99.90
3758;DHT22;1894;51.038;13.692;2024-01-06T13:54:29;6.30;99.90
3758;DHT22;1894;51.038;13.692;2024-01-06T13:56:56;6.30;99.90
3758;DHT22;1894;51.038;13.692;2024-01-06T13:59:24;6.20;99.90
3758;DHT22;1894;51.038;13.692;2024-01-06T14:01:51;6.20;99.90
3758;DHT22;1894;51.038;13.692;2024-01-06T14:04:18;6.30;99.90
3758;DHT22;1894;51.038;13.692;2024-01-06T14:06:46;6.30;99.90
3758;DHT22;1894;51.038;13.692;2024-01-06T14:09:15;6.30;99.90
3758;DHT22;1894;51.038;13.692;2024-01-06T14:11:43;6.20;99.90
3758;DHT22;1894;51.038;13.692;2024-01-06T14:14:10;6.30;99.90
3758;DHT22;1894;51.038;13.692;2024-01-06T14:16:37;6.20;99.90
3758;DHT22;1894;51.038;13.692;2024-01-06T14:19:04;6.20;99.90
3758;DHT22;1894;51.038;13.692;2024-01-06T14:21:32;6.10;99.90
3758;DHT22;1894;51.038;13.692;2024-01-06T14:23:59;6.10;99.90
3758;DHT22;1894;51.038;13.692;2024-01-06T14:26:26;6.00;99.90
3758;DHT22;1894;51.038;13.692;2024-01-06T14:28:54;5.90;99.90
3758;DHT22;1894;51.038;13.692;2024-01-06T14:31:21;6.00;99.90
3758;DHT22;1894;51.038;13.692;2024-01-06T14:33:49;6.00;99.90
3758;DHT22;1894;51.038;13.692;2024-01-06T14:36:16;6.00;99.90
3758;DHT22;1894;51.038;13.692;2024-01-06T14:38:45;5.70;99.90
3758;DHT22;1894;51.038;13.692;2024-01-06T14:41:12;5.70;99.90
3758;DHT22;1894;51.038;13.692;2024-01-06T14:43:39;5.60;99.90
3758;DHT22;1894;51.038;13.692;2024-01-06T14:46:06;5.50;99.90
3758;DHT22;1894;51.038;13.692;2024-01-06T14:48:34;5.60;99.90
3758;DHT22;1894;51.038;13.692;2024-01-06T14:51:01;5.60;99.90
3758;DHT22;1894;51.038;13.692;2024-01-06T14:53:31;5.50;99.90
3758;DHT22;1894;51.038;13.692;2024-01-06T14:55:58;5.60;99.90
3758;DHT22;1894;51.038;13.692;2024-01-06T14:58:27;5.40;99.90
3758;DHT22;1894;51.038;13.692;2024-01-06T15:00:54;5.30;99.90
3758;DHT22;1894;51.038;13.692;2024-01-06T15:03:22;5.30;99.90
3758;DHT22;1894;51.038;13.692;2024-01-06T15:05:52;5.30;99.90
3758;DHT22;1894;51.038;13.692;2024-01-06T15:08:19;5.40;99.90
3758;DHT22;1894;51.038;13.692;2024-01-06T15:10:47;5.30;99.90
3758;DHT22;1894;51.038;13.692;2024-01-06T15:13:14;5.30;99.90
3758;DHT22;1894;51.038;13.692;2024-01-06T15:15:41;5.30;99.90
3758;DHT22;1894;51.038;13.692;2024-01-06T15:18:09;5.20;99.90
3758;DHT22;1894;51.038;13.692;2024-01-06T15:20:37;5.20;99.90
3758;DHT22;1894;51.038;13.692;2024-01-06T15:23:04;5.20;99.90
3758;DHT22;1894;51.038;13.692;2024-01-06T15:25:34;5.20;99.90
3758;DHT22;1894;51.038;13.692;2024-01-06T15:28:01;5.00;99.90
3758;DHT22;1894;51.038;13.692;2024-01-06T15:30:29;5.00;99.90
3758;DHT22;1894;51.038;13.692;2024-01-06T15:32:56;4.90;99.90
3758;DHT22;1894;51.038;13.692;2024-01-06T15:35:23;4.90;99.90
3758;DHT22;1894;51.038;13.692;2024-01-06T15:37:52;4.90;99.90
3758;DHT22;1894;51.038;13.692;2024-01-06T15:40:20;4.90;99.90
3758;DHT22;1894;51.038;13.692;2024-01-06T15:42:47;4.90;99.90
3758;DHT22;1894;51.038;13.692;2024-01-06T15:45:15;4.80;99.90
3758;DHT22;1894;51.038;13.692;2024-01-06T15:47:42;4.80;99.90
3758;DHT22;1894;51.038;13.692;2024-01-06T15:50:09;4.80;99.90
3758;DHT22;1894;51.038;13.692;2024-01-06T15:52:37;4.80;99.90
3758;DHT22;1894;51.038;13.692;2024-01-06T15:55:04;4.80;99.90
3758;DHT22;1894;51.038;13.692;2024-01-06T15:57:32;4.80;99.90
3758;DHT22;1894;51.038;13.692;2024-01-06T16:00:00;4.80;99.90
3758;DHT22;1894;51.038;13.692;2024-01-06T16:02:30;4.70;99.90
3758;DHT22;1894;51.038;13.692;2024-01-06T16:04:59;4.80;99.90
3758;DHT22;1894;51.038;13.692;2024-01-06T16:07:26;4.70;99.90
3758;DHT22;1894;51.038;13.692;2024-01-06T16:09:54;4.80;99.90
3758;DHT22;1894;51.038;13.692;2024-01-06T16:12:21;4.70;99.90
3758;DHT22;1894;51.038;13.692;2024-01-06T16:14:48;4.80;99.90
3758;DHT22;1894;51.038;13.692;2024-01-06T16:17:16;4.70;99.90
3758;DHT22;1894;51.038;13.692;2024-01-06T16:19:43;4.80;99.90